sensor_id;sensor_type;location;lat;lon;timestamp;temperature;humidity
18173;DHT22;9211;48.818;9.312;2023-05-17T00:01:53;8.40;99.90
18173;DHT22;9211;48.818;9.312;2023-05-17T00:04:21;8.30;99.90
18173;DHT22;9211;48.818;9.312;2023-05-17T00:06:48;8.20;99.90
18173;DHT22;9211;48.818;9.312;2023-05-17T00:09:15;8.20;99.90
18173;DHT22;9211;48.818;9.312;2023-05-17T00:11:43;8.10;99.90
18173;DHT22;9211;48.818;9.312;2023-05-17T00:14:10;8.00;99.90
18173;DHT22;9211;48.818;9.312;2023-05-17T00:16:37;7.80;99.90
18173;DHT22;9211;48.818;9.312;2023-05-17T00:19:04;7.80;99.90
18173;DHT22;9211;48.818;9.312;2023-05-17T00:21:31;7.80;99.90
18173;DHT22;9211;48.818;9.312;2023-05-17T00:23:58;7.90;99.90
18173;DHT22;9211;48.818;9.312;2023-05-17T00:26:25;7.80;99.90
18173;DHT22;9211;48.818;9.312;2023-05-17T00:28:53;7.80;99.90
18173;DHT22;9211;48.818;9.312;2023-05-17T00:31:20;7.80;99.90
18173;DHT22;9211;48.818;9.312;2023-05-17T00:33:47;7.60;99.90
18173;DHT22;9211;48.818;9.312;2023-05-17T00:36:14;7.50;99.90
18173;DHT22;9211;48.818;9.312;2023-05-17T00:38:41;7.60;99.90
18173;DHT22;9211;48.818;9.312;2023-05-17T00:41:08;7.60;99.90
18173;DHT22;9211;48.818;9.312;2023-05-17T00:43:36;7.60;99.90
18173;DHT22;9211;48.818;9.312;2023-05-17T00:46:04;7.60;99.90
18173;DHT22;9211;48.818;9.312;2023-05-17T00:48:31;7.60;99.90
18173;DHT22;9211;48.818;9.312;2023-05-17T00:50:59;7.60;99.90
18173;DHT22;9211;48.818;9.312;2023-05-17T00:53:26;7.60;99.90
18173;DHT22;9211;48.818;9.312;2023-05-17T00:55:55;7.60;99.90
18173;DHT22;9211;48.818;9.312;2023-05-17T00:58:22;7.60;99.90
18173;DHT22;9211;48.818;9.312;2023-05-17T01:00:51;7.60;99.90
18173;DHT22;9211;48.818;9.312;2023-05-17T01:03:19;7.60;99.90
18173;DHT22;9211;48.818;9.312;2023-05-17T01:05:50;7.60;99.90
18173;DHT22;9211;48.818;9.312;2023-05-17T01:08:17;7.60;99.90
18173;DHT22;9211;48.818;9.312;2023-05-17T01:10:53;7.60;99.90
18173;DHT22;9211;48.818;9.312;2023-05-17T01:13:29;7.60;99.90
18173;DHT22;9211;48.818;9.312;2023-05-17T01:16:06;7.60;99.90
18173;DHT22;9211;48.818;9.312;2023-05-17T01:18:40;7.60;99.90
18173;DHT22;9211;48.818;9.312;2023-05-17T01:21:19;7.60;99.90
18173;DHT22;9211;48.818;9.312;2023-05-17T01:23:58;7.70;99.90
18173;DHT22;9211;48.818;9.312;2023-05-17T01:26:37;7.70;99.90
18173;DHT22;9211;48.818;9.312;2023-05-17T01:29:05;7.70;99.90
18173;DHT22;9211;48.818;9.312;2023-05-17T01:31:34;7.70;99.90
18173;DHT22;9211;48.818;9.312;2023-05-17T01:34:05;7.70;99.90
18173;DHT22;9211;48.818;9.312;2023-05-17T01:36:34;7.70;99.90
18173;DHT22;9211;48.818;9.312;2023-05-17T01:39:02;7.70;99.90
18173;DHT22;9211;48.818;9.312;2023-05-17T01:41:35;7.70;99.90
18173;DHT22;9211;48.818;9.312;2023-05-17T01:44:11;7.60;99.90
18173;DHT22;9211;48.818;9.312;2023-05-17T01:46:41;7.60;99.90
18173;DHT22;9211;48.818;9.312;2023-05-17T01:49:11;7.60;99.90
18173;DHT22;9211;48.818;9.312;2023-05-17T01:51:45;7.60;99.90
18173;DHT22;9211;48.818;9.312;2023-05-17T01:54:16;7.60;99.90
18173;DHT22;9211;48.818;9.312;2023-05-17T01:56:52;7.50;99.90
18173;DHT22;9211;48.818;9.312;2023-05-17T01:59:22;7.50;99.90
18173;DHT22;9211;48.818;9.312;2023-05-17T02:01:53;7.60;99.90
18173;DHT22;9211;48.818;9.312;2023-05-17T02:04:21;7.60;99.90
18173;DHT22;9211;48.818;9.312;2023-05-17T02:06:48;7.60;99.90
18173;DHT22;9211;48.818;9.312;2023-05-17T02:09:16;7.60;99.90
18173;DHT22;9211;48.818;9.312;2023-05-17T02:11:43;7.60;99.90
18173;DHT22;9211;48.818;9.312;2023-05-17T02:14:11;7.70;99.90
18173;DHT22;9211;48.818;9.312;2023-05-17T02:16:39;7.70;99.90
18173;DHT22;9211;48.818;9.312;2023-05-17T02:19:06;7.70;99.90
18173;DHT22;9211;48.818;9.312;2023-05-17T02:21:33;7.60;99.90
18173;DHT22;9211;48.818;9.312;2023-05-17T02:24:01;7.60;99.90
18173;DHT22;9211;48.818;9.312;2023-05-17T02:26:28;7.60;99.90
18173;DHT22;9211;48.818;9.312;2023-05-17T02:28:56;7.60;99.90
18173;DHT22;9211;48.818;9.312;2023-05-17T02:31:24;7.50;99.90
18173;DHT22;9211;48.818;9.312;2023-05-17T02:33:52;7.50;99.90
18173;DHT22;9211;48.818;9.312;2023-05-17T02:36:19;7.40;99.90
18173;DHT22;9211;48.818;9.312;2023-05-17T02:38:46;7.40;99.90
18173;DHT22;9211;48.818;9.312;2023-05-17T02:41:13;7.40;99.90
18173;DHT22;9211;48.818;9.312;2023-05-17T02:43:40;7.40;99.90
18173;DHT22;9211;48.818;9.312;2023-05-17T02:46:07;7.40;99.90
18173;DHT22;9211;48.818;9.312;2023-05-17T02:48:37;7.30;99.90
18173;DHT22;9211;48.818;9.312;2023-05-17T02:51:04;7.30;99.90
18173;DHT22;9211;48.818;9.312;2023-05-17T02:53:31;7.30;99.90
18173;DHT22;9211;48.818;9.312;2023-05-17T02:55:58;7.30;99.90
18173;DHT22;9211;48.818;9.312;2023-05-17T02:58:25;7.20;99.90
18173;DHT22;9211;48.818;9.312;2023-05-17T03:00:52;7.20;99.90
18173;DHT22;9211;48.818;9.312;2023-05-17T03:03:19;7.20;99.90
18173;DHT22;9211;48.818;9.312;2023-05-17T03:05:47;7.20;99.90
18173;DHT22;9211;48.818;9.312;2023-05-17T03:08:14;7.20;99.90
18173;DHT22;9211;48.818;9.312;2023-05-17T03:10:42;7.10;99.90
18173;DHT22;9211;48.818;9.312;2023-05-17T03:13:09;7.00;99.90
18173;DHT22;9211;48.818;9.312;2023-05-17T03:15:38;7.00;99.90
18173;DHT22;9211;48.818;9.312;2023-05-17T03:18:06;7.00;99.90
18173;DHT22;9211;48.818;9.312;2023-05-17T03:20:34;7.00;99.90
18173;DHT22;9211;48.818;9.312;2023-05-17T03:23:03;7.00;99.90
18173;DHT22;9211;48.818;9.312;2023-05-17T03:25:31;7.00;99.90
18173;DHT22;9211;48.818;9.312;2023-05-17T03:27:59;7.00;99.90
18173;DHT22;9211;48.818;9.312;2023-05-17T03:30:26;6.90;99.90
18173;DHT22;9211;48.818;9.312;2023-05-17T03:32:54;6.90;99.90
18173;DHT22;9211;48.818;9.312;2023-05-17T03:35:21;6.90;99.90
18173;DHT22;9211;48.818;9.312;2023-05-17T03:37:52;6.90;99.90
18173;DHT22;9211;48.818;9.312;2023-05-17T03:40:21;6.80;99.90
18173;DHT22;9211;48.818;9.312;2023-05-17T03:42:48;6.90;99.90
18173;DHT22;9211;48.818;9.312;2023-05-17T03:45:16;6.80;99.90
18173;DHT22;9211;48.818;9.312;2023-05-17T03:47:45;6.80;99.90
18173;DHT22;9211;48.818;9.312;2023-05-17T03:50:12;6.80;99.90
18173;DHT22;9211;48.818;9.312;2023-05-17T03:52:39;6.50;99.90
18173;DHT22;9211;48.818;9.312;2023-05-17T03:55:07;6.40;99.90
18173;DHT22;9211;48.818;9.312;2023-05-17T03:57:36;6.40;99.90
18173;DHT22;9211;48.818;9.312;2023-05-17T04:00:04;6.50;99.90
18173;DHT22;9211;48.818;9.312;2023-05-17T04:02:40;6.50;99.90
18173;DHT22;9211;48.818;9.312;2023-05-17T04:05:08;6.60;99.90
18173;DHT22;9211;48.818;9.312;2023-05-17T04:07:35;6.60;99.90
18173;DHT22;9211;48.818;9.312;2023-05-17T04:10:03;6.60;99.90
18173;DHT22;9211;48.818;9.312;2023-05-17T04:12:30;6.60;99.90
18173;DHT22;9211;48.818;9.312;2023-05-17T04:14:59;6.60;99.90
18173;DHT22;9211;48.818;9.312;2023-05-17T04:17:27;6.60;99.90
18173;DHT22;9211;48.818;9.312;2023-05-17T04:19:54;6.60;99.90
18173;DHT22;9211;48.818;9.312;2023-05-17T04:22:21;6.70;99.90
18173;DHT22;9211;48.818;9.312;2023-05-17T04:24:48;6.60;99.90
18173;DHT22;9211;48.818;9.312;2023-05-17T04:27:16;6.70;99.90
18173;DHT22;9211;48.818;9.312;2023-05-17T04:29:43;6.80;99.90
18173;DHT22;9211;48.818;9.312;2023-05-17T04:32:12;6.80;99.90
18173;DHT22;9211;48.818;9.312;2023-05-17T04:34:39;6.60;99.90
18173;DHT22;9211;48.818;9.312;2023-05-17T04:37:08;6.60;99.90
18173;DHT22;9211;48.818;9.312;2023-05-17T04:39:36;6.60;99.90
18173;DHT22;9211;48.818;9.312;2023-05-17T04:42:03;6.70;99.90
18173;DHT22;9211;48.818;9.312;2023-05-17T04:44:32;6.70;99.90
18173;DHT22;9211;48.818;9.312;2023-05-17T04:46:59;6.80;99.90
18173;DHT22;9211;48.818;9.312;2023-05-17T04:49:28;6.80;99.90
18173;DHT22;9211;48.818;9.312;2023-05-17T04:51:56;6.90;99.90
18173;DHT22;9211;48.818;9.312;2023-05-17T04:54:24;7.10;99.90
18173;DHT22;9211;48.818;9.312;2023-05-17T04:56:51;7.10;99.90
18173;DHT22;9211;48.818;9.312;2023-05-17T04:59:38;7.30;99.90
18173;DHT22;9211;48.818;9.312;2023-05-17T05:02:05;7.40;99.90
18173;DHT22;9211;48.818;9.312;2023-05-17T05:04:35;7.40;99.90
18173;DHT22;9211;48.818;9.312;2023-05-17T05:07:02;7.50;99.90
18173;DHT22;9211;48.818;9.312;2023-05-17T05:09:30;7.60;99.90
18173;DHT22;9211;48.818;9.312;2023-05-17T05:11:57;7.70;99.90
18173;DHT22;9211;48.818;9.312;2023-05-17T05:14:24;7.80;99.90
18173;DHT22;9211;48.818;9.312;2023-05-17T05:16:51;7.80;99.90
18173;DHT22;9211;48.818;9.312;2023-05-17T05:19:20;7.90;99.90
18173;DHT22;9211;48.818;9.312;2023-05-17T05:21:50;7.90;99.90
18173;DHT22;9211;48.818;9.312;2023-05-17T05:24:17;8.00;99.90
18173;DHT22;9211;48.818;9.312;2023-05-17T05:26:44;8.10;99.90
18173;DHT22;9211;48.818;9.312;2023-05-17T05:29:13;8.10;99.90
18173;DHT22;9211;48.818;9.312;2023-05-17T05:31:40;8.20;99.90
18173;DHT22;9211;48.818;9.312;2023-05-17T05:34:08;8.20;99.90
18173;DHT22;9211;48.818;9.312;2023-05-17T05:36:35;8.20;99.90
18173;DHT22;9211;48.818;9.312;2023-05-17T05:39:03;8.20;99.90
18173;DHT22;9211;48.818;9.312;2023-05-17T05:41:31;8.30;99.90
18173;DHT22;9211;48.818;9.312;2023-05-17T05:43:58;8.30;99.90
18173;DHT22;9211;48.818;9.312;2023-05-17T05:46:25;8.30;99.90
18173;DHT22;9211;48.818;9.312;2023-05-17T05:48:53;8.40;99.90
18173;DHT22;9211;48.818;9.312;2023-05-17T05:51:20;8.40;99.90
18173;DHT22;9211;48.818;9.312;2023-05-17T05:53:48;8.50;99.90
18173;DHT22;9211;48.818;9.312;2023-05-17T05:56:16;8.50;99.90
18173;DHT22;9211;48.818;9.312;2023-05-17T05:58:43;8.50;99.90
18173;DHT22;9211;48.818;9.312;2023-05-17T06:01:10;8.60;99.90
18173;DHT22;9211;48.818;9.312;2023-05-17T06:03:37;8.60;99.90
18173;DHT22;9211;48.818;9.312;2023-05-17T06:06:05;8.70;99.90
18173;DHT22;9211;48.818;9.312;2023-05-17T06:08:32;8.80;99.90
18173;DHT22;9211;48.818;9.312;2023-05-17T06:10:59;8.80;99.90
18173;DHT22;9211;48.818;9.312;2023-05-17T06:13:27;8.90;99.90
18173;DHT22;9211;48.818;9.312;2023-05-17T06:15:54;8.90;99.90
18173;DHT22;9211;48.818;9.312;2023-05-17T06:18:22;8.90;99.90
18173;DHT22;9211;48.818;9.312;2023-05-17T06:20:49;8.90;99.90
18173;DHT22;9211;48.818;9.312;2023-05-17T06:23:16;8.90;99.90
18173;DHT22;9211;48.818;9.312;2023-05-17T06:25:43;9.00;99.90
18173;DHT22;9211;48.818;9.312;2023-05-17T06:28:10;9.10;99.90
18173;DHT22;9211;48.818;9.312;2023-05-17T06:30:38;9.10;99.90
18173;DHT22;9211;48.818;9.312;2023-05-17T06:33:05;9.10;99.90
18173;DHT22;9211;48.818;9.312;2023-05-17T06:35:33;9.20;99.90
18173;DHT22;9211;48.818;9.312;2023-05-17T06:38:00;9.20;99.90
18173;DHT22;9211;48.818;9.312;2023-05-17T06:40:27;9.20;99.90
18173;DHT22;9211;48.818;9.312;2023-05-17T06:42:54;9.30;99.90
18173;DHT22;9211;48.818;9.312;2023-05-17T06:45:22;9.30;99.90
18173;DHT22;9211;48.818;9.312;2023-05-17T06:47:50;9.30;99.90
18173;DHT22;9211;48.818;9.312;2023-05-17T06:50:17;9.30;99.90
18173;DHT22;9211;48.818;9.312;2023-05-17T06:52:44;9.30;99.90
18173;DHT22;9211;48.818;9.312;2023-05-17T06:55:12;9.30;99.90
18173;DHT22;9211;48.818;9.312;2023-05-17T06:57:39;9.30;99.90
18173;DHT22;9211;48.818;9.312;2023-05-17T07:00:07;9.30;99.90
18173;DHT22;9211;48.818;9.312;2023-05-17T07:02:35;9.40;99.90
18173;DHT22;9211;48.818;9.312;2023-05-17T07:05:04;9.40;99.90
18173;DHT22;9211;48.818;9.312;2023-05-17T07:07:31;9.40;99.90
18173;DHT22;9211;48.818;9.312;2023-05-17T07:09:58;9.50;99.90
18173;DHT22;9211;48.818;9.312;2023-05-17T07:12:25;9.50;99.90
18173;DHT22;9211;48.818;9.312;2023-05-17T07:14:52;9.50;99.90
18173;DHT22;9211;48.818;9.312;2023-05-17T07:17:19;9.60;99.90
18173;DHT22;9211;48.818;9.312;2023-05-17T07:19:46;9.60;99.90
18173;DHT22;9211;48.818;9.312;2023-05-17T07:22:17;9.70;99.90
18173;DHT22;9211;48.818;9.312;2023-05-17T07:24:44;9.80;99.90
18173;DHT22;9211;48.818;9.312;2023-05-17T07:27:11;9.90;99.90
18173;DHT22;9211;48.818;9.312;2023-05-17T07:29:38;10.00;99.90
18173;DHT22;9211;48.818;9.312;2023-05-17T07:32:06;10.00;99.90
18173;DHT22;9211;48.818;9.312;2023-05-17T07:34:34;10.10;99.90
18173;DHT22;9211;48.818;9.312;2023-05-17T07:37:01;10.20;99.90
18173;DHT22;9211;48.818;9.312;2023-05-17T07:39:29;10.30;99.90
18173;DHT22;9211;48.818;9.312;2023-05-17T07:41:56;10.30;99.90
18173;DHT22;9211;48.818;9.312;2023-05-17T07:44:23;10.40;99.90
18173;DHT22;9211;48.818;9.312;2023-05-17T07:46:50;10.50;99.90
18173;DHT22;9211;48.818;9.312;2023-05-17T07:49:17;10.50;99.90
18173;DHT22;9211;48.818;9.312;2023-05-17T07:51:44;10.50;99.90
18173;DHT22;9211;48.818;9.312;2023-05-17T07:54:21;10.50;99.90
18173;DHT22;9211;48.818;9.312;2023-05-17T07:56:50;10.60;99.90
18173;DHT22;9211;48.818;9.312;2023-05-17T07:59:19;10.70;99.90
18173;DHT22;9211;48.818;9.312;2023-05-17T08:01:46;10.80;99.90
18173;DHT22;9211;48.818;9.312;2023-05-17T08:04:13;10.90;99.90
18173;DHT22;9211;48.818;9.312;2023-05-17T08:06:41;11.00;99.90
18173;DHT22;9211;48.818;9.312;2023-05-17T08:09:10;11.10;99.90
18173;DHT22;9211;48.818;9.312;2023-05-17T08:11:37;11.30;99.90
18173;DHT22;9211;48.818;9.312;2023-05-17T08:14:12;11.40;99.90
18173;DHT22;9211;48.818;9.312;2023-05-17T08:16:40;11.50;99.90
18173;DHT22;9211;48.818;9.312;2023-05-17T08:19:10;11.50;99.90
18173;DHT22;9211;48.818;9.312;2023-05-17T08:21:38;11.50;99.90
18173;DHT22;9211;48.818;9.312;2023-05-17T08:24:05;11.60;99.90
18173;DHT22;9211;48.818;9.312;2023-05-17T08:26:32;11.70;99.90
18173;DHT22;9211;48.818;9.312;2023-05-17T08:29:00;11.70;99.90
18173;DHT22;9211;48.818;9.312;2023-05-17T08:31:28;11.80;99.90
18173;DHT22;9211;48.818;9.312;2023-05-17T08:33:56;11.90;99.90
18173;DHT22;9211;48.818;9.312;2023-05-17T08:36:23;11.90;99.90
18173;DHT22;9211;48.818;9.312;2023-05-17T08:38:50;12.00;99.90
18173;DHT22;9211;48.818;9.312;2023-05-17T08:41:17;12.00;99.90
18173;DHT22;9211;48.818;9.312;2023-05-17T08:43:46;12.00;99.90
18173;DHT22;9211;48.818;9.312;2023-05-17T08:46:14;12.00;99.90
18173;DHT22;9211;48.818;9.312;2023-05-17T08:48:43;12.10;99.90
18173;DHT22;9211;48.818;9.312;2023-05-17T08:51:13;12.10;99.90
18173;DHT22;9211;48.818;9.312;2023-05-17T08:53:41;12.20;99.90
18173;DHT22;9211;48.818;9.312;2023-05-17T08:56:13;12.30;99.90
18173;DHT22;9211;48.818;9.312;2023-05-17T08:58:42;12.30;99.90
18173;DHT22;9211;48.818;9.312;2023-05-17T09:01:10;12.50;99.90
18173;DHT22;9211;48.818;9.312;2023-05-17T09:03:40;12.60;99.90
18173;DHT22;9211;48.818;9.312;2023-05-17T09:06:09;12.70;99.90
18173;DHT22;9211;48.818;9.312;2023-05-17T09:08:37;12.80;99.90
18173;DHT22;9211;48.818;9.312;2023-05-17T09:11:04;12.80;99.90
18173;DHT22;9211;48.818;9.312;2023-05-17T09:13:31;12.80;99.90
18173;DHT22;9211;48.818;9.312;2023-05-17T09:15:59;12.90;99.90
18173;DHT22;9211;48.818;9.312;2023-05-17T09:18:29;12.80;99.90
18173;DHT22;9211;48.818;9.312;2023-05-17T09:21:01;12.80;99.90
18173;DHT22;9211;48.818;9.312;2023-05-17T09:23:30;12.80;99.90
18173;DHT22;9211;48.818;9.312;2023-05-17T09:26:03;12.80;99.90
18173;DHT22;9211;48.818;9.312;2023-05-17T09:28:36;12.90;99.90
18173;DHT22;9211;48.818;9.312;2023-05-17T09:31:05;13.00;99.90
18173;DHT22;9211;48.818;9.312;2023-05-17T09:33:32;13.10;99.90
18173;DHT22;9211;48.818;9.312;2023-05-17T09:36:00;13.20;99.90
18173;DHT22;9211;48.818;9.312;2023-05-17T09:38:28;13.40;99.90
18173;DHT22;9211;48.818;9.312;2023-05-17T09:40:55;13.50;99.90
18173;DHT22;9211;48.818;9.312;2023-05-17T09:43:23;13.50;99.90
18173;DHT22;9211;48.818;9.312;2023-05-17T09:45:55;13.50;99.90
18173;DHT22;9211;48.818;9.312;2023-05-17T09:48:24;13.60;99.90
18173;DHT22;9211;48.818;9.312;2023-05-17T09:50:52;13.80;99.90
18173;DHT22;9211;48.818;9.312;2023-05-17T09:53:26;13.80;99.90
18173;DHT22;9211;48.818;9.312;2023-05-17T09:55:56;13.80;99.90
18173;DHT22;9211;48.818;9.312;2023-05-17T09:58:25;13.90;99.90
18173;DHT22;9211;48.818;9.312;2023-05-17T10:00:56;14.00;99.90
18173;DHT22;9211;48.818;9.312;2023-05-17T10:03:25;14.10;99.90
18173;DHT22;9211;48.818;9.312;2023-05-17T10:05:53;14.30;99.90
18173;DHT22;9211;48.818;9.312;2023-05-17T10:08:22;14.50;99.90
18173;DHT22;9211;48.818;9.312;2023-05-17T10:10:57;14.60;99.90
18173;DHT22;9211;48.818;9.312;2023-05-17T10:13:31;14.70;99.90
18173;DHT22;9211;48.818;9.312;2023-05-17T10:16:00;14.80;99.90
18173;DHT22;9211;48.818;9.312;2023-05-17T10:18:28;14.70;99.90
18173;DHT22;9211;48.818;9.312;2023-05-17T10:20:56;14.90;99.90
18173;DHT22;9211;48.818;9.312;2023-05-17T10:23:23;14.90;99.90
18173;DHT22;9211;48.818;9.312;2023-05-17T10:25:52;14.90;99.90
18173;DHT22;9211;48.818;9.312;2023-05-17T10:28:21;14.80;99.90
18173;DHT22;9211;48.818;9.312;2023-05-17T10:30:49;14.60;99.90
18173;DHT22;9211;48.818;9.312;2023-05-17T10:33:19;14.50;99.90
18173;DHT22;9211;48.818;9.312;2023-05-17T10:35:46;14.20;99.90
18173;DHT22;9211;48.818;9.312;2023-05-17T10:38:15;14.00;99.90
18173;DHT22;9211;48.818;9.312;2023-05-17T10:40:43;14.00;99.90
18173;DHT22;9211;48.818;9.312;2023-05-17T10:43:12;14.20;99.90
18173;DHT22;9211;48.818;9.312;2023-05-17T10:45:41;14.30;99.90
18173;DHT22;9211;48.818;9.312;2023-05-17T10:48:08;14.40;99.90
18173;DHT22;9211;48.818;9.312;2023-05-17T10:50:37;14.50;99.90
18173;DHT22;9211;48.818;9.312;2023-05-17T10:53:07;14.80;99.90
18173;DHT22;9211;48.818;9.312;2023-05-17T10:55:38;14.90;99.90
18173;DHT22;9211;48.818;9.312;2023-05-17T10:58:14;15.10;99.90
18173;DHT22;9211;48.818;9.312;2023-05-17T11:00:44;15.20;99.90
18173;DHT22;9211;48.818;9.312;2023-05-17T11:03:13;15.30;99.90
18173;DHT22;9211;48.818;9.312;2023-05-17T11:05:42;15.30;99.90
18173;DHT22;9211;48.818;9.312;2023-05-17T11:08:14;15.20;99.90
18173;DHT22;9211;48.818;9.312;2023-05-17T11:11:06;15.30;99.90
18173;DHT22;9211;48.818;9.312;2023-05-17T11:13:33;15.30;99.90
18173;DHT22;9211;48.818;9.312;2023-05-17T11:16:06;15.30;99.90
18173;DHT22;9211;48.818;9.312;2023-05-17T11:18:46;15.20;99.90
18173;DHT22;9211;48.818;9.312;2023-05-17T11:21:14;15.10;99.90
18173;DHT22;9211;48.818;9.312;2023-05-17T11:23:42;14.90;99.90
18173;DHT22;9211;48.818;9.312;2023-05-17T11:26:20;14.80;99.90
18173;DHT22;9211;48.818;9.312;2023-05-17T11:28:48;14.80;99.90
18173;DHT22;9211;48.818;9.312;2023-05-17T11:31:16;14.80;99.90
18173;DHT22;9211;48.818;9.312;2023-05-17T11:33:57;14.80;99.90
18173;DHT22;9211;48.818;9.312;2023-05-17T11:36:24;14.90;99.90
18173;DHT22;9211;48.818;9.312;2023-05-17T11:39:09;14.90;99.90
18173;DHT22;9211;48.818;9.312;2023-05-17T11:41:37;14.80;99.90
18173;DHT22;9211;48.818;9.312;2023-05-17T11:44:06;14.60;99.90
18173;DHT22;9211;48.818;9.312;2023-05-17T11:46:36;14.60;99.90
18173;DHT22;9211;48.818;9.312;2023-05-17T11:49:05;14.60;99.90
18173;DHT22;9211;48.818;9.312;2023-05-17T11:51:33;14.70;99.90
18173;DHT22;9211;48.818;9.312;2023-05-17T11:54:02;14.70;99.90
18173;DHT22;9211;48.818;9.312;2023-05-17T11:56:33;14.80;99.90
18173;DHT22;9211;48.818;9.312;2023-05-17T11:59:01;14.90;99.90
18173;DHT22;9211;48.818;9.312;2023-05-17T12:01:42;14.90;99.90
18173;DHT22;9211;48.818;9.312;2023-05-17T12:04:10;15.10;99.90
18173;DHT22;9211;48.818;9.312;2023-05-17T12:06:38;15.00;99.90
18173;DHT22;9211;48.818;9.312;2023-05-17T12:09:06;15.10;99.90
18173;DHT22;9211;48.818;9.312;2023-05-17T12:11:35;15.10;99.90
18173;DHT22;9211;48.818;9.312;2023-05-17T12:14:04;15.20;99.90
18173;DHT22;9211;48.818;9.312;2023-05-17T12:16:33;15.40;99.90
18173;DHT22;9211;48.818;9.312;2023-05-17T12:19:03;15.30;99.90
18173;DHT22;9211;48.818;9.312;2023-05-17T12:21:30;15.30;99.90
18173;DHT22;9211;48.818;9.312;2023-05-17T12:23:57;15.30;99.90
18173;DHT22;9211;48.818;9.312;2023-05-17T12:26:23;15.20;99.90
18173;DHT22;9211;48.818;9.312;2023-05-17T12:28:55;15.40;99.90
18173;DHT22;9211;48.818;9.312;2023-05-17T12:31:26;15.50;99.90
18173;DHT22;9211;48.818;9.312;2023-05-17T12:33:53;15.60;99.90
18173;DHT22;9211;48.818;9.312;2023-05-17T12:36:22;15.70;99.90
18173;DHT22;9211;48.818;9.312;2023-05-17T12:38:49;15.60;99.90
18173;DHT22;9211;48.818;9.312;2023-05-17T12:41:17;15.50;99.90
18173;DHT22;9211;48.818;9.312;2023-05-17T12:43:45;15.40;99.90
18173;DHT22;9211;48.818;9.312;2023-05-17T12:46:13;15.30;99.90
18173;DHT22;9211;48.818;9.312;2023-05-17T12:48:42;15.40;99.90
18173;DHT22;9211;48.818;9.312;2023-05-17T12:51:10;15.50;99.90
18173;DHT22;9211;48.818;9.312;2023-05-17T12:53:41;15.50;99.90
18173;DHT22;9211;48.818;9.312;2023-05-17T12:56:13;15.50;99.90
18173;DHT22;9211;48.818;9.312;2023-05-17T12:58:40;15.40;99.90
18173;DHT22;9211;48.818;9.312;2023-05-17T13:01:07;15.50;99.90
18173;DHT22;9211;48.818;9.312;2023-05-17T13:03:38;15.50;99.90
18173;DHT22;9211;48.818;9.312;2023-05-17T13:06:06;15.40;99.90
18173;DHT22;9211;48.818;9.312;2023-05-17T13:08:35;15.20;99.90
18173;DHT22;9211;48.818;9.312;2023-05-17T13:11:11;15.20;99.90
18173;DHT22;9211;48.818;9.312;2023-05-17T13:13:39;15.20;99.90
18173;DHT22;9211;48.818;9.312;2023-05-17T13:16:06;15.30;99.90
18173;DHT22;9211;48.818;9.312;2023-05-17T13:18:47;15.60;99.90
18173;DHT22;9211;48.818;9.312;2023-05-17T13:21:16;15.60;99.90
18173;DHT22;9211;48.818;9.312;2023-05-17T13:23:44;15.60;99.90
18173;DHT22;9211;48.818;9.312;2023-05-17T13:26:13;15.60;99.90
18173;DHT22;9211;48.818;9.312;2023-05-17T13:28:40;15.60;99.90
18173;DHT22;9211;48.818;9.312;2023-05-17T13:31:07;15.60;99.90
18173;DHT22;9211;48.818;9.312;2023-05-17T13:33:34;15.70;99.90
18173;DHT22;9211;48.818;9.312;2023-05-17T13:36:01;15.80;99.90
18173;DHT22;9211;48.818;9.312;2023-05-17T13:38:28;15.90;99.90
18173;DHT22;9211;48.818;9.312;2023-05-17T13:40:55;16.00;99.90
18173;DHT22;9211;48.818;9.312;2023-05-17T13:43:23;16.00;99.90
18173;DHT22;9211;48.818;9.312;2023-05-17T13:45:50;16.00;99.90
18173;DHT22;9211;48.818;9.312;2023-05-17T13:48:21;16.10;99.90
18173;DHT22;9211;48.818;9.312;2023-05-17T13:50:48;16.20;99.90
18173;DHT22;9211;48.818;9.312;2023-05-17T13:53:16;16.10;99.90
18173;DHT22;9211;48.818;9.312;2023-05-17T13:55:43;16.00;99.90
18173;DHT22;9211;48.818;9.312;2023-05-17T13:58:11;16.00;99.90
18173;DHT22;9211;48.818;9.312;2023-05-17T14:00:40;16.00;99.90
18173;DHT22;9211;48.818;9.312;2023-05-17T14:03:10;16.00;99.90
18173;DHT22;9211;48.818;9.312;2023-05-17T14:05:37;16.10;99.90
18173;DHT22;9211;48.818;9.312;2023-05-17T14:08:05;15.80;99.90
18173;DHT22;9211;48.818;9.312;2023-05-17T14:10:32;15.90;99.90
18173;DHT22;9211;48.818;9.312;2023-05-17T14:13:00;16.00;99.90
18173;DHT22;9211;48.818;9.312;2023-05-17T14:15:27;16.10;99.90
18173;DHT22;9211;48.818;9.312;2023-05-17T14:17:55;16.30;99.90
18173;DHT22;9211;48.818;9.312;2023-05-17T14:20:22;16.20;99.90
18173;DHT22;9211;48.818;9.312;2023-05-17T14:22:49;16.10;99.90
18173;DHT22;9211;48.818;9.312;2023-05-17T14:25:16;16.20;99.90
18173;DHT22;9211;48.818;9.312;2023-05-17T14:27:43;16.20;99.90
18173;DHT22;9211;48.818;9.312;2023-05-17T14:30:12;16.10;99.90
18173;DHT22;9211;48.818;9.312;2023-05-17T14:32:39;16.00;99.90
18173;DHT22;9211;48.818;9.312;2023-05-17T14:35:08;15.90;99.90
18173;DHT22;9211;48.818;9.312;2023-05-17T14:37:36;15.80;99.90
18173;DHT22;9211;48.818;9.312;2023-05-17T14:40:03;15.90;99.90
18173;DHT22;9211;48.818;9.312;2023-05-17T14:42:31;15.90;99.90
18173;DHT22;9211;48.818;9.312;2023-05-17T14:44:58;16.00;99.90
18173;DHT22;9211;48.818;9.312;2023-05-17T14:47:25;16.10;99.90
18173;DHT22;9211;48.818;9.312;2023-05-17T14:49:52;16.20;99.90
18173;DHT22;9211;48.818;9.312;2023-05-17T14:52:20;16.20;99.90
18173;DHT22;9211;48.818;9.312;2023-05-17T14:54:47;16.20;99.90
18173;DHT22;9211;48.818;9.312;2023-05-17T14:57:14;16.20;99.90
18173;DHT22;9211;48.818;9.312;2023-05-17T14:59:41;16.20;99.90
18173;DHT22;9211;48.818;9.312;2023-05-17T15:02:09;16.10;99.90
18173;DHT22;9211;48.818;9.312;2023-05-17T15:04:36;16.00;99.90
18173;DHT22;9211;48.818;9.312;2023-05-17T15:07:03;15.90;99.90
18173;DHT22;9211;48.818;9.312;2023-05-17T15:09:37;15.70;99.90
18173;DHT22;9211;48.818;9.312;2023-05-17T15:12:07;15.60;99.90
18173;DHT22;9211;48.818;9.312;2023-05-17T15:14:34;15.50;99.90
18173;DHT22;9211;48.818;9.312;2023-05-17T15:17:01;15.40;99.90
18173;DHT22;9211;48.818;9.312;2023-05-17T15:19:29;15.30;99.90
18173;DHT22;9211;48.818;9.312;2023-05-17T15:21:56;15.30;99.90
18173;DHT22;9211;48.818;9.312;2023-05-17T15:24:23;15.30;99.90
18173;DHT22;9211;48.818;9.312;2023-05-17T15:26:52;15.40;99.90
18173;DHT22;9211;48.818;9.312;2023-05-17T15:29:19;15.50;99.90
18173;DHT22;9211;48.818;9.312;2023-05-17T15:31:46;15.60;99.90
18173;DHT22;9211;48.818;9.312;2023-05-17T15:34:13;15.60;99.90
18173;DHT22;9211;48.818;9.312;2023-05-17T15:36:40;15.70;99.90
18173;DHT22;9211;48.818;9.312;2023-05-17T15:39:07;15.80;99.90
18173;DHT22;9211;48.818;9.312;2023-05-17T15:41:35;16.20;99.90
18173;DHT22;9211;48.818;9.312;2023-05-17T15:44:03;16.50;99.90
18173;DHT22;9211;48.818;9.312;2023-05-17T15:46:32;16.80;99.90
18173;DHT22;9211;48.818;9.312;2023-05-17T15:48:59;17.00;99.90
18173;DHT22;9211;48.818;9.312;2023-05-17T15:51:26;17.10;99.90
18173;DHT22;9211;48.818;9.312;2023-05-17T15:53:53;17.10;99.90
18173;DHT22;9211;48.818;9.312;2023-05-17T15:56:20;17.20;99.90
18173;DHT22;9211;48.818;9.312;2023-05-17T15:58:48;17.30;99.90
18173;DHT22;9211;48.818;9.312;2023-05-17T16:01:16;17.30;99.90